createdAt,value
2022-09-07T00:00:21.111Z,13.55
2022-09-07T00:03:08.840Z,9.13
2022-09-07T00:05:46.679Z,7.97
2022-09-07T00:08:22.201Z,9.88
2022-09-07T00:11:01.053Z,6.75
2022-09-07T00:13:38.001Z,5.97
2022-09-07T00:16:14.983Z,6.43
2022-09-07T00:18:48.205Z,6.53
2022-09-07T00:21:21.293Z,6.60
2022-09-07T00:23:54.490Z,9.10
2022-09-07T00:26:30.103Z,8.63
2022-09-07T00:29:04.430Z,8.52
2022-09-07T00:31:37.542Z,7.70
2022-09-07T00:34:10.279Z,6.82
2022-09-07T00:36:43.109Z,8.65
2022-09-07T00:39:15.900Z,9.43
2022-09-07T00:41:49.193Z,10.20
2022-09-07T00:44:42.868Z,6.68
2022-09-07T00:47:25.537Z,7.28
2022-09-07T00:50:02.847Z,7.50
2022-09-07T00:52:38.407Z,9.40
2022-09-07T00:55:14.775Z,6.15
2022-09-07T00:57:52.459Z,6.47
2022-09-07T01:00:25.467Z,6.25
2022-09-07T01:03:00.682Z,6.63
2022-09-07T01:05:54.043Z,6.97
2022-09-07T01:08:27.117Z,10.10
2022-09-07T01:11:01.272Z,10.60
2022-09-07T01:13:34.967Z,4.78
2022-09-07T01:16:12.916Z,4.07
2022-09-07T01:19:08.910Z,6.72
2022-09-07T01:22:00.335Z,6.40
2022-09-07T01:24:45.505Z,4.10
2022-09-07T01:27:49.078Z,6.60
2022-09-07T01:30:23.618Z,7.70
2022-09-07T01:33:34.502Z,5.82
2022-09-07T01:36:34.522Z,4.95
2022-09-07T01:39:08.323Z,3.70
2022-09-07T01:42:01.682Z,7.15
2022-09-07T01:44:58.534Z,6.75
2022-09-07T01:47:47.518Z,5.10
2022-09-07T01:50:22.738Z,7.18
2022-09-07T01:53:22.251Z,4.03
2022-09-07T01:56:07.142Z,5.35
2022-09-07T01:58:43.970Z,5.82
2022-09-07T02:01:28.655Z,8.30
2022-09-07T02:04:25.700Z,7.95
2022-09-07T02:07:11.191Z,4.18
2022-09-07T02:10:10.094Z,6.15
2022-09-07T02:12:55.641Z,5.60
2022-09-07T02:15:39.287Z,5.82
2022-09-07T02:18:16.439Z,5.20
2022-09-07T02:20:53.394Z,3.72
2022-09-07T02:23:33.127Z,6.80
2022-09-07T02:26:13.779Z,5.53
2022-09-07T02:31:20.329Z,3.70
2022-09-07T02:33:53.134Z,6.00
2022-09-07T02:36:32.380Z,5.40
2022-09-07T02:39:05.170Z,12.45
2022-09-07T02:41:41.118Z,6.45
2022-09-07T02:44:22.795Z,6.15
2022-09-07T02:47:13.297Z,7.25
2022-09-07T02:50:17.091Z,5.68
2022-09-07T02:52:58.834Z,8.55
2022-09-07T02:55:37.326Z,6.05
2022-09-07T02:58:10.119Z,5.95
2022-09-07T03:01:12.777Z,5.75
2022-09-07T03:04:07.382Z,5.22
2022-09-07T03:06:49.662Z,6.15
2022-09-07T03:09:29.221Z,14.68
2022-09-07T03:12:05.826Z,9.23
2022-09-07T03:14:43.862Z,6.18
2022-09-07T03:17:17.281Z,6.55
2022-09-07T03:19:50.162Z,8.13
2022-09-07T03:22:22.851Z,5.50
2022-09-07T03:24:55.773Z,5.88
2022-09-07T03:27:28.431Z,9.82
2022-09-07T03:30:02.038Z,5.40
2022-09-07T03:32:36.897Z,10.45
2022-09-07T03:35:10.297Z,9.65
2022-09-07T03:37:43.225Z,6.65
2022-09-07T03:40:16.879Z,6.30
2022-09-07T03:42:50.512Z,9.80
2022-09-07T03:45:23.529Z,6.97
2022-09-07T03:47:56.202Z,5.10
2022-09-07T03:50:29.907Z,10.05
2022-09-07T03:53:02.590Z,9.23
2022-09-07T03:55:35.584Z,9.50
2022-09-07T03:58:08.199Z,4.95
2022-09-07T04:00:41.755Z,8.45
2022-09-07T04:03:14.424Z,4.80
2022-09-07T04:05:47.376Z,5.55
2022-09-07T04:08:20.103Z,8.85
2022-09-07T04:10:52.988Z,9.50
2022-09-07T04:13:26.896Z,7.82
2022-09-07T04:16:00.011Z,9.85
2022-09-07T04:18:32.671Z,10.57
2022-09-07T04:21:05.627Z,6.18
2022-09-07T04:23:40.248Z,6.28
2022-09-07T04:26:34.611Z,8.63
2022-09-07T04:29:07.455Z,10.50
2022-09-07T04:31:40.423Z,5.35
2022-09-07T04:34:13.500Z,5.32
2022-09-07T04:36:46.303Z,9.30
2022-09-07T04:39:18.988Z,6.75
2022-09-07T04:41:51.869Z,6.68
2022-09-07T04:44:24.552Z,6.50
2022-09-07T04:46:57.434Z,5.28
2022-09-07T04:49:30.067Z,7.45
2022-09-07T04:52:03.235Z,8.18
2022-09-07T04:54:35.853Z,7.88
2022-09-07T04:57:12.158Z,7.43
2022-09-07T04:59:44.737Z,9.95
2022-09-07T05:02:17.802Z,7.13
2022-09-07T05:04:50.632Z,6.82
2022-09-07T05:07:23.602Z,8.10
2022-09-07T05:09:57.393Z,11.82
2022-09-07T05:12:39.635Z,6.20
2022-09-07T05:15:12.426Z,7.85
2022-09-07T05:17:51.764Z,7.82
2022-09-07T05:20:48.666Z,8.43
2022-09-07T05:23:24.559Z,5.47
2022-09-07T05:26:08.483Z,7.32
2022-09-07T05:28:41.472Z,9.18
2022-09-07T05:31:19.640Z,12.27
2022-09-07T05:36:47.569Z,9.20
2022-09-07T05:39:21.356Z,7.63
2022-09-07T05:41:54.349Z,7.80
2022-09-07T05:47:15.810Z,14.00
2022-09-07T05:49:48.880Z,9.55
2022-09-07T05:52:21.753Z,5.13
2022-09-07T05:55:07.408Z,16.20
2022-09-07T05:57:47.375Z,5.25
2022-09-07T06:00:21.586Z,6.05
2022-09-07T06:02:54.286Z,6.05
2022-09-07T06:05:27.451Z,7.35
2022-09-07T06:08:00.349Z,5.40
2022-09-07T06:13:13.236Z,8.00
2022-09-07T06:15:46.197Z,11.43
2022-09-07T06:18:19.011Z,9.65
2022-09-07T06:20:51.850Z,4.22
2022-09-07T06:23:24.467Z,8.10
2022-09-07T06:25:57.718Z,5.85
2022-09-07T06:28:38.296Z,9.02
2022-09-07T06:31:16.554Z,6.88
2022-09-07T06:33:50.409Z,4.43
2022-09-07T06:36:27.401Z,5.35
2022-09-07T06:39:01.814Z,8.40
2022-09-07T06:44:27.946Z,4.18
2022-09-07T06:49:33.903Z,8.90
2022-09-07T06:52:06.990Z,3.30
2022-09-07T06:57:32.566Z,7.03
2022-09-07T07:00:05.838Z,8.55
2022-09-07T07:02:38.852Z,5.53
2022-09-07T07:05:11.678Z,4.00
2022-09-07T07:07:44.854Z,5.53
2022-09-07T07:10:22.172Z,20.77
2022-09-07T07:12:58.259Z,7.10
2022-09-07T07:15:31.353Z,3.20
2022-09-07T07:18:19.746Z,2.55
2022-09-07T07:20:53.301Z,3.78
2022-09-07T07:23:26.470Z,4.22
2022-09-07T07:26:04.361Z,4.00
2022-09-07T07:31:32.698Z,6.63
2022-09-07T07:34:05.706Z,2.58
2022-09-07T07:36:38.902Z,7.25
2022-09-07T07:42:05.958Z,2.08
2022-09-07T07:44:39.057Z,3.35
2022-09-07T07:47:11.618Z,2.08
2022-09-07T07:49:45.097Z,5.43
2022-09-07T07:58:03.502Z,2.35
2022-09-07T08:00:52.913Z,1.45
2022-09-07T08:03:26.359Z,4.13
2022-09-07T08:06:14.910Z,4.47
2022-09-07T08:08:47.791Z,3.33
2022-09-07T08:11:22.182Z,4.22
2022-09-07T08:13:55.921Z,5.63
2022-09-07T08:16:28.978Z,6.57
2022-09-07T08:19:02.057Z,6.32
2022-09-07T08:21:35.073Z,3.35
2022-09-07T08:24:07.985Z,4.32
2022-09-07T08:26:41.054Z,2.20
2022-09-07T08:29:13.718Z,1.45
2022-09-07T08:31:46.838Z,2.90
2022-09-07T08:34:19.713Z,1.67
2022-09-07T08:36:52.737Z,4.43
2022-09-07T08:39:25.377Z,3.67
2022-09-07T08:42:19.349Z,1.45
2022-09-07T08:45:07.165Z,1.08
2022-09-07T08:47:52.044Z,1.98
2022-09-07T08:50:40.381Z,2.40
2022-09-07T08:53:18.795Z,5.05
2022-09-07T08:55:57.625Z,1.90
2022-09-07T08:58:53.198Z,1.70
2022-09-07T09:01:34.670Z,0.88
2022-09-07T09:04:27.504Z,3.45
2022-09-07T09:07:19.053Z,2.45
2022-09-07T09:10:13.372Z,8.73
2022-09-07T09:13:01.778Z,1.42
2022-09-07T09:15:46.581Z,6.68
2022-09-07T09:18:22.090Z,1.75
2022-09-07T09:20:59.087Z,1.02
2022-09-07T09:23:36.365Z,1.08
2022-09-07T09:26:39.937Z,1.95
2022-09-07T09:29:14.597Z,1.05
2022-09-07T09:31:47.757Z,0.80
2022-09-07T09:34:24.038Z,0.77
2022-09-07T09:37:00.620Z,1.17
2022-09-07T09:39:38.025Z,0.68
2022-09-07T09:42:24.197Z,2.17
2022-09-07T09:45:04.137Z,1.55
2022-09-07T09:53:40.241Z,2.67
2022-09-07T09:56:13.188Z,3.55
2022-09-07T10:04:35.261Z,0.50
2022-09-07T10:07:17.872Z,1.15
2022-09-07T10:09:53.133Z,1.13
2022-09-07T10:12:35.189Z,0.80
2022-09-07T10:15:24.168Z,2.83
2022-09-07T10:17:58.587Z,3.63
2022-09-07T10:20:36.988Z,0.95
2022-09-07T10:23:21.484Z,2.60
2022-09-07T10:25:54.330Z,1.48
2022-09-07T10:29:06.559Z,4.50
2022-09-07T10:31:30.375Z,2.15
2022-09-07T10:37:08.555Z,1.45
2022-09-07T10:40:12.407Z,2.95
2022-09-07T10:43:21.465Z,2.78
2022-09-07T10:46:06.579Z,2.50
2022-09-07T10:49:02.452Z,3.65
2022-09-07T10:51:53.109Z,0.80
2022-09-07T10:54:47.680Z,4.43
2022-09-07T10:57:51.968Z,0.93
2022-09-07T11:00:25.916Z,0.73
2022-09-07T11:03:28.855Z,1.00
2022-09-07T11:06:22.202Z,1.98
2022-09-07T11:09:21.960Z,1.80
2022-09-07T11:12:01.448Z,2.53
2022-09-07T11:17:22.005Z,1.48
2022-09-07T11:20:17.976Z,3.70
2022-09-07T11:23:05.108Z,1.98
2022-09-07T11:25:52.150Z,1.42
2022-09-07T11:28:31.018Z,2.95
2022-09-07T11:31:10.791Z,3.67
2022-09-07T11:36:53.955Z,1.05
2022-09-07T11:39:36.502Z,1.60
2022-09-07T11:42:43.159Z,2.25
2022-09-07T11:45:29.268Z,5.25
2022-09-07T11:48:19.506Z,6.38
2022-09-07T11:50:58.958Z,1.98
2022-09-07T11:53:36.740Z,3.10
2022-09-07T11:56:20.661Z,1.27
2022-09-07T11:59:02.648Z,8.77
2022-09-07T12:05:04.824Z,0.98
2022-09-07T12:08:06.675Z,1.52
2022-09-07T12:11:18.154Z,4.93
2022-09-07T12:13:57.164Z,5.88
2022-09-07T12:16:29.853Z,3.35
2022-09-07T12:19:25.600Z,4.18
2022-09-07T12:22:00.400Z,4.07
2022-09-07T12:24:41.169Z,2.97
2022-09-07T12:27:23.118Z,4.47
2022-09-07T12:30:01.432Z,0.95
2022-09-07T12:32:54.183Z,2.03
2022-09-07T12:35:30.241Z,0.77
2022-09-07T12:38:18.323Z,0.75
2022-09-07T12:41:24.967Z,2.00
2022-09-07T12:44:14.723Z,1.45
2022-09-07T12:50:10.101Z,2.45
2022-09-07T12:52:43.282Z,2.83
2022-09-07T12:55:28.457Z,4.47
2022-09-07T12:58:02.276Z,3.53
2022-09-07T13:01:06.088Z,1.25
2022-09-07T13:04:00.937Z,2.15
2022-09-07T13:07:02.019Z,4.75
2022-09-07T13:09:41.515Z,2.13
2022-09-07T13:12:56.800Z,1.33
2022-09-07T13:15:51.983Z,3.15
2022-09-07T13:18:27.495Z,2.63
2022-09-07T13:21:10.347Z,4.60
2022-09-07T13:23:51.552Z,6.00
2022-09-07T13:27:04.351Z,2.83
2022-09-07T13:30:01.283Z,4.15
2022-09-07T13:35:29.495Z,0.85
2022-09-07T13:38:03.903Z,4.32
2022-09-07T13:40:45.061Z,1.95
2022-09-07T13:43:22.523Z,1.80
2022-09-07T13:45:55.183Z,1.75
2022-09-07T13:48:36.428Z,16.75
2022-09-07T13:51:24.023Z,5.40
2022-09-07T13:53:56.744Z,2.20
2022-09-07T13:56:49.011Z,6.18
2022-09-07T13:59:36.191Z,2.60
2022-09-07T14:02:21.534Z,2.25
2022-09-07T14:04:56.859Z,1.23
2022-09-07T14:07:31.335Z,0.90
2022-09-07T14:10:19.730Z,3.60
2022-09-07T14:12:55.219Z,7.43
2022-09-07T14:15:32.482Z,3.03
2022-09-07T14:18:31.606Z,7.43
2022-09-07T14:21:05.735Z,4.32
2022-09-07T14:23:39.989Z,2.72
2022-09-07T14:26:18.368Z,2.42
2022-09-07T14:28:54.002Z,2.75
2022-09-07T14:31:27.043Z,4.32
2022-09-07T14:34:01.124Z,5.43
2022-09-07T14:36:45.827Z,2.47
2022-09-07T14:39:22.478Z,4.20
2022-09-07T14:41:56.371Z,2.63
2022-09-07T14:44:39.192Z,2.70
2022-09-07T14:47:30.212Z,3.20
2022-09-07T14:50:06.015Z,6.07
2022-09-07T14:53:33.276Z,1.58
2022-09-07T14:55:45.758Z,2.10
2022-09-07T14:58:24.146Z,2.28
2022-09-07T15:04:18.444Z,4.72
2022-09-07T15:07:06.348Z,5.38
2022-09-07T15:09:39.404Z,5.40
2022-09-07T15:12:32.734Z,4.20
2022-09-07T15:15:26.331Z,5.38
2022-09-07T15:18:06.056Z,6.13
2022-09-07T15:20:44.324Z,2.80
2022-09-07T15:23:19.362Z,1.38
2022-09-07T15:25:54.090Z,4.93
2022-09-07T15:31:54.587Z,1.35
2022-09-07T15:34:24.581Z,4.43
2022-09-07T15:37:00.863Z,3.42
2022-09-07T15:39:34.675Z,1.52
2022-09-07T15:45:01.912Z,2.40
2022-09-07T15:47:52.573Z,0.95
2022-09-07T15:50:26.015Z,1.65
2022-09-07T15:53:00.845Z,4.60
2022-09-07T15:55:33.669Z,2.10
2022-09-07T15:58:11.684Z,6.15
2022-09-07T16:00:44.684Z,3.20
2022-09-07T16:03:18.731Z,1.60
2022-09-07T16:05:53.165Z,7.80
2022-09-07T16:08:26.135Z,1.77
2022-09-07T16:11:08.555Z,5.97
2022-09-07T16:13:47.113Z,4.28
2022-09-07T16:16:20.784Z,2.13
2022-09-07T16:18:53.870Z,1.48
2022-09-07T16:21:26.597Z,3.40
2022-09-07T16:23:59.427Z,5.07
2022-09-07T16:26:31.929Z,2.13
2022-09-07T16:29:05.582Z,2.72
2022-09-07T16:31:38.460Z,3.05
2022-09-07T16:34:11.358Z,5.68
2022-09-07T16:36:44.253Z,3.75
2022-09-07T16:39:18.580Z,2.50
2022-09-07T16:41:51.357Z,6.88
2022-09-07T16:44:24.113Z,0.90
2022-09-07T16:46:56.629Z,2.10
2022-09-07T16:49:29.409Z,2.28
2022-09-07T16:52:02.343Z,2.00
2022-09-07T16:54:35.354Z,7.22
2022-09-07T16:57:07.886Z,5.18
2022-09-07T16:59:40.658Z,5.82
2022-09-07T17:02:17.529Z,10.38
2022-09-07T17:04:51.841Z,2.45
2022-09-07T17:07:24.385Z,36.42
2022-09-07T17:09:57.541Z,17.13
2022-09-07T17:12:30.103Z,12.60
2022-09-07T17:15:02.985Z,9.77
2022-09-07T17:17:35.761Z,8.77
2022-09-07T17:20:09.002Z,8.38
2022-09-07T17:22:41.518Z,2.25
2022-09-07T17:25:14.404Z,6.13
2022-09-07T17:27:47.912Z,3.28
2022-09-07T17:30:20.920Z,6.45
2022-09-07T17:32:54.150Z,4.40
2022-09-07T17:35:27.125Z,6.20
2022-09-07T17:38:01.332Z,7.18
2022-09-07T17:40:34.269Z,8.82
2022-09-07T17:46:07.926Z,6.30
2022-09-07T17:48:40.702Z,14.05
2022-09-07T17:51:13.673Z,6.50
2022-09-07T17:53:46.588Z,4.93
2022-09-07T17:56:19.288Z,17.17
2022-09-07T17:58:52.616Z,9.77
2022-09-07T18:01:26.760Z,16.55
2022-09-07T18:03:59.392Z,9.48
2022-09-07T18:06:33.042Z,6.72
2022-09-07T18:09:05.867Z,5.25
2022-09-07T18:11:47.661Z,8.82
2022-09-07T18:14:21.636Z,9.77
2022-09-07T18:16:54.381Z,11.02
2022-09-07T18:19:26.897Z,6.20
2022-09-07T18:22:02.713Z,7.07
2022-09-07T18:24:36.882Z,9.32
2022-09-07T18:27:10.236Z,9.95
2022-09-07T18:29:43.483Z,14.45
2022-09-07T18:32:17.680Z,6.25
2022-09-07T18:34:50.880Z,10.88
2022-09-07T18:37:23.840Z,10.00
2022-09-07T18:39:56.417Z,7.15
2022-09-07T18:42:30.352Z,7.72
2022-09-07T18:47:55.869Z,4.63
2022-09-07T18:50:28.408Z,8.93
2022-09-07T18:53:10.505Z,11.25
2022-09-07T18:55:48.611Z,6.80
2022-09-07T18:58:21.594Z,8.50
2022-09-07T19:00:58.096Z,9.23
2022-09-07T19:03:31.728Z,10.73
2022-09-07T19:06:06.899Z,7.63
2022-09-07T19:08:41.883Z,13.15
2022-09-07T19:11:24.148Z,13.63
2022-09-07T19:14:01.100Z,12.95
2022-09-07T19:16:33.782Z,13.13
2022-09-07T19:19:07.841Z,7.93
2022-09-07T19:21:42.987Z,13.27
2022-09-07T19:24:18.127Z,10.32
2022-09-07T19:26:50.719Z,14.38
2022-09-07T19:29:23.718Z,11.00
2022-09-07T19:32:05.061Z,11.80
2022-09-07T19:34:42.934Z,9.77
2022-09-07T19:37:16.030Z,9.25
2022-09-07T19:39:49.684Z,12.43
2022-09-07T19:42:23.711Z,15.15
2022-09-07T19:44:56.505Z,8.88
2022-09-07T19:47:29.097Z,17.70
2022-09-07T19:50:01.885Z,15.20
2022-09-07T19:52:34.980Z,15.60
2022-09-07T19:55:08.210Z,16.75
2022-09-07T19:57:40.845Z,16.58
2022-09-07T20:00:14.309Z,18.42
2022-09-07T20:02:49.433Z,16.58
2022-09-07T20:05:23.830Z,13.55
2022-09-07T20:07:57.195Z,24.75
2022-09-07T20:10:31.794Z,18.77
2022-09-07T20:13:04.677Z,15.50
2022-09-07T20:15:41.024Z,15.38
2022-09-07T20:18:13.521Z,10.80
2022-09-07T20:20:46.236Z,16.35
2022-09-07T20:23:18.998Z,19.05
2022-09-07T20:26:08.708Z,14.40
2022-09-07T20:28:42.010Z,14.00
2022-09-07T20:31:17.746Z,13.43
2022-09-07T20:33:51.802Z,13.15
2022-09-07T20:36:24.592Z,14.25
2022-09-07T20:38:57.125Z,13.05
2022-09-07T20:41:33.924Z,9.50
2022-09-07T20:44:07.097Z,12.10
2022-09-07T20:46:41.844Z,19.52
2022-09-07T20:49:14.537Z,12.40
2022-09-07T20:51:47.369Z,11.25
2022-09-07T20:54:19.861Z,15.95
2022-09-07T20:56:52.597Z,11.38
2022-09-07T20:59:25.667Z,13.80
2022-09-07T21:01:58.468Z,9.85
2022-09-07T21:04:31.044Z,14.38
2022-09-07T21:07:03.767Z,11.85
2022-09-07T21:09:36.400Z,9.15
2022-09-07T21:12:09.202Z,10.40
2022-09-07T21:14:41.859Z,13.88
2022-09-07T21:17:15.083Z,13.30
2022-09-07T21:19:47.617Z,8.63
2022-09-07T21:22:20.336Z,12.65
2022-09-07T21:24:52.864Z,13.15
2022-09-07T21:27:25.639Z,12.50
2022-09-07T21:29:58.153Z,9.00
2022-09-07T21:32:31.320Z,9.40
2022-09-07T21:35:04.277Z,11.27
2022-09-07T21:37:37.672Z,13.48
2022-09-07T21:40:10.605Z,8.80
2022-09-07T21:42:43.488Z,9.77
2022-09-07T21:45:16.134Z,13.27
2022-09-07T21:47:48.829Z,12.25
2022-09-07T21:50:21.370Z,12.65
2022-09-07T21:52:54.082Z,12.55
2022-09-07T21:55:26.708Z,9.65
2022-09-07T21:58:00.873Z,12.63
2022-09-07T22:00:33.484Z,12.68
2022-09-07T22:03:07.423Z,7.85
2022-09-07T22:05:40.019Z,10.40
2022-09-07T22:08:14.471Z,14.65
2022-09-07T22:10:47.219Z,12.27
2022-09-07T22:13:20.472Z,10.80
2022-09-07T22:15:53.010Z,13.88
2022-09-07T22:18:25.887Z,12.10
2022-09-07T22:21:13.841Z,14.23
2022-09-07T22:23:52.706Z,13.38
2022-09-07T22:26:28.227Z,10.15
2022-09-07T22:29:01.100Z,12.75
2022-09-07T22:31:36.218Z,11.55
2022-09-07T22:34:10.005Z,8.07
2022-09-07T22:36:44.757Z,11.32
2022-09-07T22:39:18.892Z,9.95
2022-09-07T22:41:51.867Z,8.02
2022-09-07T22:44:26.823Z,13.05
2022-09-07T22:46:59.438Z,7.93
2022-09-07T22:49:32.275Z,8.73
2022-09-07T22:52:04.886Z,12.00
2022-09-07T22:54:37.595Z,8.65
2022-09-07T22:57:10.171Z,8.88
2022-09-07T22:59:44.120Z,11.23
2022-09-07T23:02:16.672Z,14.65
2022-09-07T23:04:49.483Z,11.13
2022-09-07T23:07:22.671Z,9.35
2022-09-07T23:09:55.539Z,11.05
2022-09-07T23:12:28.119Z,10.10
2022-09-07T23:15:00.881Z,13.02
2022-09-07T23:17:33.404Z,10.52
2022-09-07T23:20:06.956Z,8.77
2022-09-07T23:22:39.505Z,8.40
2022-09-07T23:25:13.159Z,7.90
2022-09-07T23:27:45.677Z,11.70
2022-09-07T23:30:18.481Z,9.38
2022-09-07T23:32:51.012Z,9.85
2022-09-07T23:35:23.816Z,8.88
2022-09-07T23:37:56.708Z,16.02
2022-09-07T23:40:30.524Z,7.57
2022-09-07T23:43:03.092Z,7.88
2022-09-07T23:45:35.812Z,9.95
2022-09-07T23:48:08.371Z,8.80
2022-09-07T23:50:42.679Z,12.73
2022-09-07T23:53:16.419Z,11.18
2022-09-07T23:55:51.609Z,6.32
2022-09-07T23:58:24.620Z,6.90
